Time;durP1;ratioP1;P1;durP2;ratioP2;P2;SDS_P1;SDS_P2;PMS_P1;PMS_P2;Temp;Humidity;BMP_temperature;BMP_pressure;BME280_temperature;BME280_humidity;BME280_pressure;Samples;Min_cycle;Max_cycle;Signal;HPM_P1;HPM_P2
2021/12/31 00:00:15;;;;;;;3.50;3.20;;;13.20;99.00;;;;;;5107347;28;20639;-82
2021/12/31 00:02:42;;;;;;;3.00;2.70;;;13.20;99.00;;;;;;5115979;28;20205;-85
2021/12/31 00:05:10;;;;;;;5.30;3.22;;;13.20;99.10;;;;;;5116479;28;20301;-84
2021/12/31 00:07:42;;;;;;;5.13;3.20;;;13.20;99.70;;;;;;5116550;28;20221;-83
2021/12/31 00:10:12;;;;;;;2.92;2.53;;;13.20;99.70;;;;;;5116786;28;20224;-84
2021/12/31 00:12:42;;;;;;;3.40;3.10;;;13.10;99.60;;;;;;5113670;28;20192;-83
2021/12/31 00:15:17;;;;;;;4.35;3.30;;;13.10;99.60;;;;;;5112940;28;20225;-83
2021/12/31 00:17:48;;;;;;;3.50;2.60;;;13.10;99.70;;;;;;5116198;28;20231;-83
2021/12/31 00:20:19;;;;;;;3.65;3.20;;;13.10;99.90;;;;;;5112611;28;20196;-83
2021/12/31 00:23:04;;;;;;;2.85;2.60;;;13.10;99.90;;;;;;5112459;28;20205;-82
2021/12/31 00:25:32;;;;;;;4.20;2.85;;;13.00;99.90;;;;;;5111298;28;20281;-82
2021/12/31 00:27:59;;;;;;;3.47;3.15;;;13.00;99.90;;;;;;5110239;28;20615;-82
2021/12/31 00:30:29;;;;;;;5.50;3.42;;;13.00;99.90;;;;;;5114685;28;20189;-82
2021/12/31 00:33:02;;;;;;;3.58;3.08;;;13.00;99.90;;;;;;5119432;28;20200;-83
2021/12/31 00:35:29;;;;;;;3.78;3.10;;;12.90;99.90;;;;;;5100362;28;20220;-84
2021/12/31 00:37:58;;;;;;;3.55;3.10;;;12.90;99.90;;;;;;5118382;28;20208;-82
2021/12/31 00:40:26;;;;;;;3.22;2.92;;;12.90;99.90;;;;;;5118079;28;20221;-82
2021/12/31 00:42:54;;;;;;;6.50;3.65;;;12.90;99.90;;;;;;5116320;28;20205;-82
2021/12/31 00:45:24;;;;;;;3.35;3.05;;;12.90;99.90;;;;;;5117502;28;20224;-81
2021/12/31 00:47:51;;;;;;;4.95;3.03;;;12.90;99.90;;;;;;5119008;28;20270;-84
2021/12/31 00:50:19;;;;;;;3.65;2.80;;;12.90;99.90;;;;;;5116302;28;20690;-83
2021/12/31 00:52:46;;;;;;;3.10;2.80;;;12.90;99.90;;;;;;5116204;28;20221;-82
2021/12/31 00:55:15;;;;;;;4.43;3.42;;;12.90;99.90;;;;;;5115072;28;20297;-82
2021/12/31 00:57:44;;;;;;;4.00;3.38;;;12.80;99.90;;;;;;5116519;28;20193;-82
2021/12/31 01:00:15;;;;;;;5.10;3.00;;;12.80;99.90;;;;;;5115435;28;20219;-82
2021/12/31 01:02:43;;;;;;;4.95;3.60;;;12.70;99.90;;;;;;5115349;28;20209;-82
2021/12/31 01:05:11;;;;;;;5.50;3.55;;;12.70;99.90;;;;;;5113978;28;20213;-82
2021/12/31 01:07:38;;;;;;;3.45;3.10;;;12.70;99.90;;;;;;5117330;28;20249;-81
2021/12/31 01:10:06;;;;;;;4.95;3.00;;;12.70;99.90;;;;;;5117247;28;20289;-84
2021/12/31 01:12:35;;;;;;;12.07;3.50;;;12.60;99.90;;;;;;5115613;28;20356;-82
2021/12/31 01:15:04;;;;;;;3.78;2.88;;;12.60;99.90;;;;;;5111210;28;20781;-82
2021/12/31 01:18:02;;;;;;;3.08;2.83;;;12.60;99.90;;;;;;5110261;28;20197;-83
2021/12/31 01:20:29;;;;;;;4.05;3.30;;;12.60;99.90;;;;;;5113037;28;20216;-83
2021/12/31 01:22:56;;;;;;;5.45;3.30;;;12.60;99.90;;;;;;5114239;28;20209;-83
2021/12/31 01:25:23;;;;;;;5.45;3.28;;;12.60;99.90;;;;;;5113904;28;20233;-82
2021/12/31 01:27:51;;;;;;;4.20;3.60;;;12.60;99.90;;;;;;5113487;28;20228;-82
2021/12/31 01:30:18;;;;;;;3.85;2.95;;;12.60;99.90;;;;;;5114987;28;20655;-82
2021/12/31 01:32:46;;;;;;;3.75;3.22;;;12.50;99.90;;;;;;5117819;28;20202;-85
2021/12/31 01:35:13;;;;;;;3.25;2.95;;;12.50;99.90;;;;;;5116753;28;20285;-84
2021/12/31 01:37:40;;;;;;;4.43;3.28;;;12.50;99.90;;;;;;5118980;28;20212;-85
2021/12/31 01:40:09;;;;;;;4.78;3.00;;;12.50;99.90;;;;;;5111351;28;20209;-83
2021/12/31 01:42:37;;;;;;;5.38;3.92;;;12.40;99.90;;;;;;5109207;28;20204;-82
2021/12/31 01:45:13;;;;;;;3.67;3.38;;;12.40;99.90;;;;;;5109772;28;20237;-82
2021/12/31 01:47:56;;;;;;;4.97;3.70;;;12.40;99.90;;;;;;5107900;28;20699;-82
2021/12/31 01:50:24;;;;;;;4.85;3.00;;;12.30;99.90;;;;;;5108578;28;20266;-81
2021/12/31 01:52:51;;;;;;;4.18;3.00;;;12.30;99.90;;;;;;5108033;28;20201;-82
2021/12/31 01:55:20;;;;;;;5.10;3.25;;;12.30;99.90;;;;;;5103573;28;20287;-82
2021/12/31 01:57:47;;;;;;;4.32;3.05;;;12.20;99.90;;;;;;5102976;28;20217;-83
2021/12/31 02:00:16;;;;;;;4.25;3.53;;;12.10;99.90;;;;;;5102602;28;20213;-82
2021/12/31 02:02:45;;;;;;;3.85;3.38;;;12.10;99.90;;;;;;5104696;28;20235;-83
2021/12/31 02:05:13;;;;;;;3.40;3.05;;;12.00;99.90;;;;;;5106420;28;20221;-83
2021/12/31 02:07:40;;;;;;;5.10;3.13;;;11.80;99.90;;;;;;5114048;28;20217;-83
2021/12/31 02:10:09;;;;;;;5.22;3.75;;;11.70;99.90;;;;;;5115896;28;20242;-83
2021/12/31 02:12:39;;;;;;;4.00;2.90;;;11.60;99.90;;;;;;5114722;28;20199;-83
2021/12/31 02:15:06;;;;;;;3.20;2.90;;;11.60;99.90;;;;;;5117563;28;20247;-84
2021/12/31 02:17:35;;;;;;;4.65;3.70;;;11.60;99.90;;;;;;5117039;28;20288;-84
2021/12/31 02:20:06;;;;;;;4.50;3.22;;;11.60;99.90;;;;;;5117675;28;20205;-84
2021/12/31 02:22:35;;;;;;;3.35;3.05;;;11.50;99.90;;;;;;5117338;28;20201;-84
2021/12/31 02:25:02;;;;;;;3.40;3.10;;;11.40;99.90;;;;;;5117098;28;20220;-84
2021/12/31 02:27:29;;;;;;;5.43;3.33;;;11.30;99.90;;;;;;5104878;28;20677;-83
2021/12/31 02:29:56;;;;;;;3.80;3.05;;;11.30;99.90;;;;;;5109521;28;20205;-84
2021/12/31 02:32:23;;;;;;;5.35;3.50;;;11.20;99.90;;;;;;5117230;28;20260;-84
2021/12/31 02:34:51;;;;;;;4.15;3.72;;;11.10;99.90;;;;;;5117276;28;20209;-84
2021/12/31 02:37:20;;;;;;;4.10;3.70;;;11.00;99.90;;;;;;5116992;28;20199;-84
2021/12/31 02:39:47;;;;;;;3.95;3.10;;;10.90;99.90;;;;;;5116643;28;20387;-84
2021/12/31 02:42:14;;;;;;;4.50;3.20;;;10.90;99.90;;;;;;5110399;28;20201;-84
2021/12/31 02:44:42;;;;;;;3.60;3.30;;;10.90;99.90;;;;;;5100844;28;20283;-82
2021/12/31 02:47:09;;;;;;;4.93;3.33;;;10.80;99.90;;;;;;5101578;28;20248;-83
2021/12/31 02:49:40;;;;;;;4.70;3.10;;;10.80;99.90;;;;;;5099479;28;20219;-83
2021/12/31 02:52:09;;;;;;;7.38;3.13;;;10.70;99.90;;;;;;5101167;28;20426;-83
2021/12/31 02:54:40;;;;;;;4.82;3.63;;;10.70;99.90;;;;;;5098726;28;20624;-83
2021/12/31 02:57:08;;;;;;;4.00;3.60;;;10.60;99.90;;;;;;5099958;28;20678;-83
2021/12/31 02:59:36;;;;;;;5.35;3.70;;;10.60;99.90;;;;;;5099959;28;20266;-84
2021/12/31 03:02:06;;;;;;;3.75;3.35;;;10.60;99.90;;;;;;5101125;28;20295;-83
2021/12/31 03:04:36;;;;;;;3.60;3.30;;;10.50;99.90;;;;;;5108089;28;20323;-84
2021/12/31 03:07:07;;;;;;;5.75;4.00;;;10.50;99.90;;;;;;5100076;28;20209;-83
2021/12/31 03:09:43;;;;;;;4.38;3.25;;;10.40;99.90;;;;;;5099085;28;20232;-84
2021/12/31 03:12:11;;;;;;;5.32;3.65;;;10.40;99.90;;;;;;5099544;28;20284;-84
2021/12/31 03:14:40;;;;;;;3.95;3.55;;;10.40;99.90;;;;;;5099572;28;20243;-82
2021/12/31 03:17:08;;;;;;;3.17;2.85;;;10.40;99.90;;;;;;5100523;28;20209;-83
2021/12/31 03:19:35;;;;;;;5.38;3.90;;;10.30;99.90;;;;;;5099510;28;20245;-83
2021/12/31 03:22:02;;;;;;;3.25;2.95;;;10.20;99.90;;;;;;5097983;28;20208;-83
2021/12/31 03:24:29;;;;;;;6.47;3.35;;;10.20;99.90;;;;;;5098654;28;20243;-84
2021/12/31 03:26:58;;;;;;;4.95;4.20;;;10.20;99.90;;;;;;5101355;28;20608;-84
2021/12/31 03:29:25;;;;;;;3.67;3.28;;;10.10;99.90;;;;;;5098626;28;20231;-83
2021/12/31 03:31:52;;;;;;;6.28;3.60;;;10.10;99.90;;;;;;5098318;28;20295;-84
2021/12/31 03:34:19;;;;;;;4.50;3.08;;;10.10;99.90;;;;;;5105242;28;20239;-84
2021/12/31 03:36:46;;;;;;;4.22;3.55;;;10.00;99.90;;;;;;5107228;28;20209;-84
2021/12/31 03:39:14;;;;;;;4.40;3.75;;;10.00;99.90;;;;;;5107306;28;20705;-85
2021/12/31 03:41:40;;;;;;;5.03;3.88;;;10.00;99.90;;;;;;5105751;28;20209;-84
2021/12/31 03:44:09;;;;;;;3.60;3.15;;;9.90;99.90;;;;;;5102516;28;20296;-83
2021/12/31 03:46:36;;;;;;;3.70;3.40;;;9.90;99.90;;;;;;5105290;28;20231;-84
2021/12/31 03:49:03;;;;;;;3.85;3.45;;;10.00;99.90;;;;;;5109745;28;20197;-82
2021/12/31 03:51:29;;;;;;;4.03;3.58;;;9.90;99.90;;;;;;5117656;28;20227;-83
2021/12/31 03:53:56;;;;;;;5.32;3.45;;;9.80;99.90;;;;;;5119186;28;20217;-84
2021/12/31 03:56:26;;;;;;;4.57;3.95;;;9.80;99.90;;;;;;5120509;28;20189;-84
2021/12/31 03:58:55;;;;;;;4.90;4.40;;;9.70;99.90;;;;;;5116955;28;20604;-84
2021/12/31 04:01:23;;;;;;;4.35;3.95;;;9.70;99.90;;;;;;5101601;28;20216;-82
2021/12/31 04:03:50;;;;;;;7.57;3.75;;;9.60;99.90;;;;;;5113371;28;20222;-84
2021/12/31 04:06:17;;;;;;;4.40;4.00;;;9.70;99.90;;;;;;5102011;28;20228;-83
2021/12/31 04:08:44;;;;;;;4.22;3.83;;;9.70;99.90;;;;;;5101520;28;20220;-83
2021/12/31 04:11:13;;;;;;;4.15;3.78;;;9.70;99.90;;;;;;5114578;22;20229;-82
2021/12/31 04:13:40;;;;;;;4.65;4.15;;;9.60;99.90;;;;;;5088176;28;20234;-81
2021/12/31 04:16:07;;;;;;;4.68;3.80;;;9.70;99.90;;;;;;5095284;28;20288;-79
2021/12/31 04:18:35;;;;;;;5.05;4.32;;;9.60;99.90;;;;;;5082933;28;20223;-82
2021/12/31 04:21:02;;;;;;;6.22;4.60;;;9.60;99.90;;;;;;5087301;28;20288;-81
2021/12/31 04:23:31;;;;;;;4.68;4.20;;;9.50;99.90;;;;;;5100344;28;20211;-82
2021/12/31 04:25:59;;;;;;;7.07;4.97;;;9.50;99.90;;;;;;5099866;28;20268;-80
2021/12/31 04:28:28;;;;;;;5.35;4.45;;;9.50;99.90;;;;;;5097772;28;20294;-77
2021/12/31 04:30:55;;;;;;;4.45;4.00;;;9.50;99.90;;;;;;5096411;28;20320;-80
2021/12/31 04:33:22;;;;;;;8.48;4.68;;;9.50;99.90;;;;;;5099692;28;20209;-80
2021/12/31 04:35:51;;;;;;;6.43;4.85;;;9.40;99.90;;;;;;5098213;28;20650;-78
2021/12/31 04:38:17;;;;;;;8.77;4.40;;;9.40;99.90;;;;;;5097812;28;20223;-79
2021/12/31 04:40:44;;;;;;;5.40;4.43;;;9.40;99.90;;;;;;5102241;28;20220;-80
2021/12/31 04:43:11;;;;;;;5.20;4.28;;;9.30;99.90;;;;;;5115816;28;20216;-77
2021/12/31 04:45:38;;;;;;;5.07;4.03;;;9.30;99.90;;;;;;5114616;28;20228;-80
2021/12/31 04:48:05;;;;;;;4.32;3.92;;;9.30;99.90;;;;;;5115572;28;20273;-79
2021/12/31 04:50:32;;;;;;;5.18;4.68;;;9.20;99.90;;;;;;5106264;28;20260;-81
2021/12/31 04:53:02;;;;;;;4.90;3.45;;;9.20;99.90;;;;;;5099388;28;20215;-80
2021/12/31 04:55:29;;;;;;;4.65;4.25;;;9.20;99.90;;;;;;5096612;28;20216;-79
2021/12/31 04:57:56;;;;;;;4.55;3.95;;;9.20;99.90;;;;;;5096399;28;20244;-78
2021/12/31 05:00:23;;;;;;;5.30;4.63;;;9.20;99.90;;;;;;5095202;28;20326;-78
2021/12/31 05:02:50;;;;;;;4.63;4.15;;;9.20;99.90;;;;;;5095673;28;20581;-78
2021/12/31 05:05:17;;;;;;;4.90;4.45;;;9.10;99.90;;;;;;5096043;28;20237;-79
2021/12/31 05:07:43;;;;;;;7.35;4.80;;;9.10;99.90;;;;;;5096480;28;20328;-79
2021/12/31 05:10:12;;;;;;;5.80;5.30;;;9.00;99.90;;;;;;5102106;28;20232;-79
2021/12/31 05:12:39;;;;;;;6.15;4.70;;;9.00;99.90;;;;;;5113346;28;20220;-81
2021/12/31 05:15:09;;;;;;;5.43;4.47;;;9.00;99.90;;;;;;5106648;28;20252;-80
2021/12/31 05:17:36;;;;;;;5.45;4.70;;;9.00;99.90;;;;;;5099439;28;20220;-78
2021/12/31 05:20:05;;;;;;;3.83;3.50;;;9.00;99.90;;;;;;5099094;28;20201;-79
2021/12/31 05:22:33;;;;;;;5.57;4.53;;;9.00;99.90;;;;;;5098223;28;20697;-79
2021/12/31 05:25:00;;;;;;;6.80;4.30;;;8.90;99.90;;;;;;5100764;28;20769;-80
2021/12/31 05:27:28;;;;;;;4.53;3.65;;;8.80;99.90;;;;;;5100207;28;20228;-78
2021/12/31 05:29:55;;;;;;;4.38;3.97;;;8.80;99.90;;;;;;5101045;28;20228;-80
2021/12/31 05:32:22;;;;;;;5.47;3.35;;;8.70;99.90;;;;;;5100116;28;20254;-81
2021/12/31 05:34:49;;;;;;;4.32;3.92;;;8.70;99.90;;;;;;5107261;28;20197;-79
2021/12/31 05:37:16;;;;;;;5.90;4.13;;;8.60;99.90;;;;;;5114192;28;20204;-80
2021/12/31 05:39:44;;;;;;;4.15;3.65;;;8.60;99.90;;;;;;5101132;28;20303;-81
2021/12/31 05:42:11;;;;;;;5.97;4.55;;;8.60;99.90;;;;;;5114069;28;20243;-78
2021/12/31 05:44:40;;;;;;;4.70;4.30;;;8.50;99.90;;;;;;5115855;28;20216;-81
2021/12/31 05:47:07;;;;;;;6.28;4.45;;;8.50;99.90;;;;;;5103316;28;20629;-80
2021/12/31 05:49:34;;;;;;;18.75;4.55;;;8.50;99.90;;;;;;5098665;28;20518;-81
2021/12/31 05:52:01;;;;;;;4.78;3.85;;;8.50;99.90;;;;;;5098579;28;20233;-80
2021/12/31 05:54:27;;;;;;;3.85;3.45;;;8.40;99.90;;;;;;5100697;28;20291;-80
2021/12/31 05:56:54;;;;;;;6.35;4.30;;;8.40;99.90;;;;;;5100848;28;20460;-81
2021/12/31 05:59:21;;;;;;;6.43;4.15;;;8.50;99.90;;;;;;5099429;28;20572;-80
2021/12/31 06:01:49;;;;;;;4.50;3.80;;;8.40;99.90;;;;;;5099042;28;20235;-80
2021/12/31 06:04:16;;;;;;;3.78;3.20;;;8.40;99.90;;;;;;5101558;28;20236;-80
2021/12/31 06:06:44;;;;;;;5.38;3.83;;;8.30;99.90;;;;;;5106048;28;20224;-81
2021/12/31 06:09:12;;;;;;;5.15;3.70;;;8.30;99.90;;;;;;5102819;28;20282;-81
2021/12/31 06:11:40;;;;;;;6.93;3.85;;;8.30;99.90;;;;;;5098301;28;20248;-81
2021/12/31 06:14:09;;;;;;;4.60;4.10;;;8.20;99.90;;;;;;5115657;28;20260;-80
2021/12/31 06:16:41;;;;;;;4.22;3.70;;;8.30;99.90;;;;;;5102906;28;20272;-81
2021/12/31 06:19:11;;;;;;;4.60;3.40;;;8.20;99.90;;;;;;5098585;28;20292;-81
2021/12/31 06:21:40;;;;;;;5.07;4.07;;;8.20;99.90;;;;;;5097991;28;20253;-80
2021/12/31 06:24:07;;;;;;;3.92;3.63;;;8.10;99.90;;;;;;5098419;28;20228;-80
2021/12/31 06:26:34;;;;;;;5.68;4.43;;;8.10;99.90;;;;;;5106665;28;20507;-78
2021/12/31 06:29:02;;;;;;;6.13;4.15;;;8.10;99.90;;;;;;5116886;28;20266;-79
2021/12/31 06:31:29;;;;;;;4.28;3.45;;;8.10;99.90;;;;;;5109075;28;20300;-80
2021/12/31 06:33:55;;;;;;;4.35;3.72;;;8.00;99.90;;;;;;5116277;28;20185;-78
2021/12/31 06:36:24;;;;;;;6.18;4.05;;;8.00;99.90;;;;;;5116863;28;20193;-79
2021/12/31 06:38:51;;;;;;;5.22;3.75;;;8.00;99.90;;;;;;5114342;28;20204;-80
2021/12/31 06:41:18;;;;;;;4.20;3.80;;;8.00;99.90;;;;;;5100755;28;20221;-81
2021/12/31 06:43:45;;;;;;;6.75;4.38;;;8.00;99.90;;;;;;5100561;28;20248;-80
2021/12/31 06:46:12;;;;;;;8.10;4.50;;;8.00;99.90;;;;;;5097242;28;20276;-80
2021/12/31 06:48:38;;;;;;;7.45;4.75;;;8.00;99.90;;;;;;5097674;28;20225;-80
2021/12/31 06:51:05;;;;;;;4.75;3.67;;;8.00;99.90;;;;;;5096856;28;20233;-80
2021/12/31 06:53:34;;;;;;;5.70;4.30;;;7.90;99.90;;;;;;5097160;28;20209;-80
2021/12/31 06:56:01;;;;;;;6.97;5.10;;;7.90;99.90;;;;;;5098013;28;20275;-79
2021/12/31 06:58:27;;;;;;;5.97;4.75;;;7.90;99.90;;;;;;5097542;28;20197;-80
2021/12/31 07:00:54;;;;;;;5.00;3.90;;;7.90;99.90;;;;;;5096811;28;20720;-79
2021/12/31 07:03:21;;;;;;;4.47;4.07;;;7.80;99.90;;;;;;5097844;28;20232;-80
2021/12/31 07:05:48;;;;;;;5.97;4.32;;;7.80;99.90;;;;;;5097497;28;20201;-80
2021/12/31 07:08:15;;;;;;;6.20;5.60;;;7.80;99.90;;;;;;5096437;28;20232;-80
2021/12/31 07:10:43;;;;;;;9.55;5.57;;;7.70;99.90;;;;;;5096020;28;20300;-79
2021/12/31 07:13:11;;;;;;;5.85;4.43;;;7.70;99.90;;;;;;5095874;28;20209;-80
2021/12/31 07:15:40;;;;;;;6.05;4.85;;;7.70;99.90;;;;;;5096671;28;20216;-80
2021/12/31 07:18:07;;;;;;;4.70;3.80;;;7.60;99.90;;;;;;5097089;28;20239;-80
2021/12/31 07:20:34;;;;;;;5.53;4.63;;;7.60;99.90;;;;;;5096450;28;20498;-81
2021/12/31 07:23:04;;;;;;;7.07;3.88;;;7.60;99.90;;;;;;5096335;28;20212;-81
2021/12/31 07:25:32;;;;;;;4.75;4.18;;;7.60;99.90;;;;;;5097103;28;20721;-81
2021/12/31 07:28:00;;;;;;;5.13;4.10;;;7.60;99.90;;;;;;5097953;28;20252;-81
2021/12/31 07:30:27;;;;;;;7.78;3.90;;;7.60;99.90;;;;;;5102811;28;20275;-82
2021/12/31 07:32:54;;;;;;;5.32;3.97;;;7.60;99.90;;;;;;5098346;28;20230;-81
2021/12/31 07:35:21;;;;;;;5.63;3.88;;;7.70;99.90;;;;;;5096864;28;20429;-81
2021/12/31 07:37:48;;;;;;;4.40;4.00;;;7.60;99.90;;;;;;5097400;28;20189;-81
2021/12/31 07:40:24;;;;;;;5.88;4.30;;;7.60;99.90;;;;;;5098222;28;20209;-81
2021/12/31 07:42:51;;;;;;;5.05;4.07;;;7.50;99.90;;;;;;5098580;28;20276;-80
2021/12/31 07:45:20;;;;;;;4.00;3.60;;;7.60;99.90;;;;;;5097171;28;20224;-80
2021/12/31 07:47:47;;;;;;;5.30;4.85;;;7.60;99.90;;;;;;5097284;28;20342;-81
2021/12/31 07:50:15;;;;;;;7.03;4.50;;;7.60;99.90;;;;;;5096707;28;20203;-84
2021/12/31 07:52:42;;;;;;;5.40;4.78;;;7.70;99.90;;;;;;5103575;28;20209;-81
2021/12/31 07:55:09;;;;;;;4.18;3.78;;;7.70;99.90;;;;;;5098621;28;20232;-81
2021/12/31 07:57:36;;;;;;;5.18;3.40;;;7.70;99.90;;;;;;5097700;28;20576;-81
2021/12/31 08:00:04;;;;;;;5.13;4.30;;;7.70;99.90;;;;;;5100120;28;20209;-80
2021/12/31 08:02:33;;;;;;;6.30;3.85;;;7.80;99.90;;;;;;5114089;28;20239;-78
2021/12/31 08:05:00;;;;;;;4.22;3.83;;;7.80;99.90;;;;;;5114772;28;20202;-77
2021/12/31 08:07:27;;;;;;;5.10;4.38;;;7.80;99.90;;;;;;5115407;28;20189;-79
2021/12/31 08:09:53;;;;;;;5.18;4.53;;;7.80;99.90;;;;;;5114956;28;20221;-78
2021/12/31 08:12:20;;;;;;;5.18;4.68;;;7.80;99.90;;;;;;5115025;28;20237;-78
2021/12/31 08:14:47;;;;;;;5.93;4.20;;;7.90;99.90;;;;;;5114743;28;20277;-80
2021/12/31 08:17:14;;;;;;;6.93;4.50;;;7.90;99.90;;;;;;5109362;28;20224;-80
2021/12/31 08:19:42;;;;;;;6.38;5.10;;;7.90;99.90;;;;;;5102427;28;20207;-81
2021/12/31 08:22:09;;;;;;;8.07;4.32;;;7.90;99.90;;;;;;5111448;28;20253;-80
2021/12/31 08:24:36;;;;;;;5.43;4.20;;;8.00;99.90;;;;;;5113750;28;20201;-81
2021/12/31 08:27:03;;;;;;;4.80;4.20;;;8.00;99.90;;;;;;5112710;28;20217;-80
2021/12/31 08:29:30;;;;;;;4.60;4.10;;;8.00;99.90;;;;;;5112793;28;20232;-79
2021/12/31 08:31:57;;;;;;;4.80;4.30;;;8.00;99.90;;;;;;5110689;28;20304;-81
2021/12/31 08:34:24;;;;;;;5.50;4.00;;;8.00;99.90;;;;;;5105187;28;20219;-82
2021/12/31 08:36:52;;;;;;;4.22;3.83;;;8.10;99.90;;;;;;5099405;28;20209;-81
2021/12/31 08:39:19;;;;;;;5.00;4.00;;;8.20;99.90;;;;;;5100216;28;20243;-82
2021/12/31 08:41:45;;;;;;;6.13;4.10;;;8.20;99.90;;;;;;5099854;28;20678;-82
2021/12/31 08:44:12;;;;;;;5.40;4.07;;;8.30;99.90;;;;;;5100667;28;20215;-82
2021/12/31 08:46:40;;;;;;;5.15;3.72;;;8.30;99.90;;;;;;5100328;28;20745;-81
2021/12/31 08:49:07;;;;;;;6.53;4.00;;;8.30;99.90;;;;;;5100194;28;20225;-82
2021/12/31 08:51:34;;;;;;;7.50;3.90;;;8.30;99.90;;;;;;5099598;28;20270;-82
2021/12/31 08:54:03;;;;;;;7.50;4.00;;;8.30;99.90;;;;;;5108577;28;20204;-82
2021/12/31 08:56:30;;;;;;;5.43;4.35;;;8.40;99.90;;;;;;5112282;28;20316;-81
2021/12/31 08:58:57;;;;;;;4.97;4.32;;;8.40;99.90;;;;;;5103912;28;20265;-81
2021/12/31 09:01:24;;;;;;;5.60;4.05;;;8.40;99.90;;;;;;5116526;28;20225;-79
2021/12/31 09:03:52;;;;;;;4.50;4.10;;;8.50;99.90;;;;;;5116784;28;20265;-82
2021/12/31 09:06:19;;;;;;;6.35;4.20;;;8.50;99.90;;;;;;5114316;28;20205;-82
2021/12/31 09:08:46;;;;;;;6.18;4.13;;;8.50;99.90;;;;;;5110338;28;20217;-80
2021/12/31 09:11:16;;;;;;;5.30;3.80;;;8.60;99.90;;;;;;5100283;28;20255;-80
2021/12/31 09:13:46;;;;;;;6.47;4.10;;;8.70;99.90;;;;;;5105465;28;20205;-79
2021/12/31 09:16:13;;;;;;;3.97;3.67;;;8.80;99.90;;;;;;5108769;28;20205;-79
2021/12/31 09:18:41;;;;;;;5.28;3.33;;;8.80;99.90;;;;;;5103797;28;20202;-82
2021/12/31 09:21:08;;;;;;;3.80;3.42;;;8.90;99.90;;;;;;5106967;28;20563;-78
2021/12/31 09:23:35;;;;;;;3.67;3.38;;;8.90;99.90;;;;;;5112219;28;20209;-78
2021/12/31 09:26:02;;;;;;;3.80;3.40;;;9.00;99.90;;;;;;5106393;28;20334;-81
2021/12/31 09:28:30;;;;;;;4.00;2.90;;;9.10;99.90;;;;;;5101390;28;20224;-80
2021/12/31 09:31:00;;;;;;;3.50;3.20;;;9.00;99.90;;;;;;5101643;28;20312;-81
2021/12/31 09:33:29;;;;;;;4.95;3.45;;;9.10;99.90;;;;;;5096688;28;20232;-80
2021/12/31 09:35:56;;;;;;;3.70;3.40;;;9.20;99.90;;;;;;5098847;28;20281;-80
2021/12/31 09:38:23;;;;;;;2.85;2.63;;;9.20;99.90;;;;;;5109529;28;20213;-80
2021/12/31 09:40:50;;;;;;;3.33;2.70;;;9.30;99.90;;;;;;5115752;28;20221;-83
2021/12/31 09:43:19;;;;;;;3.55;2.88;;;9.40;99.90;;;;;;5111556;28;20209;-81
2021/12/31 09:45:50;;;;;;;6.93;3.20;;;9.40;99.90;;;;;;5104208;28;20231;-79
2021/12/31 09:48:19;;;;;;;3.75;3.35;;;9.50;99.90;;;;;;5101612;28;20205;-80
2021/12/31 09:50:49;;;;;;;4.35;3.70;;;9.50;99.90;;;;;;5100107;28;20228;-80
2021/12/31 09:53:18;;;;;;;4.97;3.55;;;9.50;99.90;;;;;;5100588;28;20213;-80
2021/12/31 09:55:47;;;;;;;4.05;3.53;;;9.60;99.90;;;;;;5099429;28;20265;-79
2021/12/31 09:58:17;;;;;;;5.07;3.80;;;9.70;99.90;;;;;;5097921;28;20250;-79
2021/12/31 10:00:48;;;;;;;4.50;4.10;;;9.80;99.90;;;;;;5113054;28;20284;-80
2021/12/31 10:03:17;;;;;;;4.63;3.92;;;9.80;99.90;;;;;;5115501;28;20209;-79
2021/12/31 10:05:46;;;;;;;4.60;3.60;;;9.90;99.90;;;;;;5101423;28;20227;-78
2021/12/31 10:08:18;;;;;;;5.95;4.30;;;9.90;99.90;;;;;;5096313;28;20205;-77
2021/12/31 10:11:02;;;;;;;4.43;3.97;;;10.00;99.90;;;;;;5117800;22;20290;-80
2021/12/31 10:13:28;;;;;;;4.25;3.85;;;10.10;99.90;;;;;;5087078;28;20274;-82
2021/12/31 10:15:57;;;;;;;7.03;4.00;;;10.10;99.90;;;;;;5085686;28;20212;-82
2021/12/31 10:18:30;;;;;;;6.88;5.00;;;10.20;99.90;;;;;;5084084;28;20206;-82
2021/12/31 10:20:57;;;;;;;5.13;4.32;;;10.30;99.90;;;;;;5084874;28;20224;-81
2021/12/31 10:23:23;;;;;;;5.43;4.18;;;10.40;99.90;;;;;;5098946;28;20224;-82
2021/12/31 10:25:50;;;;;;;4.28;3.35;;;10.40;99.90;;;;;;5110124;28;20204;-82
2021/12/31 10:28:18;;;;;;;5.05;4.05;;;10.50;99.90;;;;;;5114514;28;20269;-83
2021/12/31 10:30:46;;;;;;;4.30;3.92;;;10.50;99.90;;;;;;5114321;28;20221;-85
2021/12/31 10:33:14;;;;;;;3.70;3.40;;;10.50;99.90;;;;;;5115140;28;20205;-82
2021/12/31 10:35:43;;;;;;;4.28;3.88;;;10.50;99.90;;;;;;5102730;28;20219;-82
2021/12/31 10:38:12;;;;;;;4.10;3.70;;;10.50;99.90;;;;;;5101363;28;20303;-81
2021/12/31 10:40:43;;;;;;;4.50;3.72;;;10.50;99.90;;;;;;5097985;28;20206;-83
2021/12/31 10:43:15;;;;;;;5.90;3.97;;;10.50;99.90;;;;;;5097761;28;20381;-82
2021/12/31 10:45:59;;;;;;;5.15;4.65;;;10.60;99.90;;;;;;5097805;28;20259;-82
2021/12/31 10:48:43;;;;;;;5.35;3.95;;;10.70;99.90;;;;;;5099883;28;20437;-82
2021/12/31 10:51:10;;;;;;;4.13;3.65;;;10.80;99.90;;;;;;5099791;28;20672;-83
2021/12/31 10:53:37;;;;;;;5.85;4.60;;;10.90;99.90;;;;;;5098735;28;20233;-83
2021/12/31 10:56:09;;;;;;;4.75;3.67;;;11.00;99.90;;;;;;5098234;28;20232;-81
2021/12/31 10:58:38;;;;;;;5.32;3.78;;;11.10;99.90;;;;;;5098823;28;20215;-83
2021/12/31 11:01:08;;;;;;;4.65;4.25;;;11.20;99.90;;;;;;5099076;28;20274;-83
2021/12/31 11:03:35;;;;;;;5.20;4.32;;;11.30;99.90;;;;;;5098152;28;20246;-82
2021/12/31 11:06:06;;;;;;;7.13;4.85;;;11.40;99.90;;;;;;5099084;28;20219;-82
2021/12/31 11:08:34;;;;;;;6.30;5.40;;;11.50;99.90;;;;;;5098847;28;20271;-82
2021/12/31 11:11:03;;;;;;;6.80;5.68;;;11.50;97.70;;;;;;5100064;28;20264;-83
2021/12/31 11:13:31;;;;;;;8.73;5.38;;;11.40;96.30;;;;;;5106221;28;20746;-83
2021/12/31 11:16:00;;;;;;;6.38;4.78;;;11.50;96.20;;;;;;5108352;28;20205;-85
2021/12/31 11:18:31;;;;;;;5.60;4.97;;;11.60;94.70;;;;;;5109757;28;20212;-82
2021/12/31 11:21:01;;;;;;;6.38;5.13;;;11.50;93.60;;;;;;5104980;28;20714;-84
2021/12/31 11:23:31;;;;;;;6.10;5.50;;;11.40;93.70;;;;;;5100086;28;20197;-84
2021/12/31 11:26:01;;;;;;;6.70;5.82;;;11.40;93.90;;;;;;5099058;28;20239;-84
2021/12/31 11:28:30;;;;;;;8.18;6.30;;;11.40;93.70;;;;;;5100710;28;20238;-84
2021/12/31 11:31:17;;;;;;;8.45;6.50;;;11.30;94.70;;;;;;5115142;28;20225;-82
2021/12/31 11:33:46;;;;;;;7.25;6.50;;;11.20;95.40;;;;;;5115800;28;20268;-80
2021/12/31 11:36:15;;;;;;;8.77;6.57;;;11.20;95.60;;;;;;5116057;28;20196;-81
2021/12/31 11:38:47;;;;;;;7.32;6.43;;;11.30;96.00;;;;;;5116691;28;20246;-83
2021/12/31 11:41:18;;;;;;;6.88;6.18;;;11.40;95.50;;;;;;5116824;28;20225;-81
2021/12/31 11:44:03;;;;;;;7.10;6.10;;;11.40;95.00;;;;;;5116988;28;20178;-79
2021/12/31 11:46:35;;;;;;;9.18;7.18;;;11.40;95.30;;;;;;5116641;28;20219;-84
2021/12/31 11:49:04;;;;;;;6.70;6.00;;;11.50;95.40;;;;;;5116599;28;20193;-83
2021/12/31 11:51:35;;;;;;;8.68;6.50;;;11.40;95.10;;;;;;5115995;28;20235;-80
2021/12/31 11:54:20;;;;;;;6.70;6.10;;;11.40;95.00;;;;;;5115482;28;20201;-83
2021/12/31 11:56:59;;;;;;;7.90;6.35;;;11.50;95.40;;;;;;5114933;28;20250;-83
2021/12/31 11:59:54;;;;;;;9.30;6.57;;;11.70;94.30;;;;;;5115354;28;20208;-84
2021/12/31 12:02:33;;;;;;;7.78;6.93;;;11.70;93.80;;;;;;5114777;28;20232;-80
2021/12/31 12:05:11;;;;;;;7.70;6.47;;;11.70;93.90;;;;;;5114871;28;20650;-81
2021/12/31 12:07:40;;;;;;;7.40;6.70;;;11.80;93.80;;;;;;5114172;28;20208;-82
2021/12/31 12:10:24;;;;;;;8.05;6.90;;;11.80;93.40;;;;;;5114030;28;20253;-82
2021/12/31 12:12:53;;;;;;;8.88;7.05;;;11.80;92.90;;;;;;5114142;28;20238;-82
2021/12/31 12:15:34;;;;;;;7.93;7.15;;;11.80;93.50;;;;;;5118088;28;20205;-83
2021/12/31 12:18:05;;;;;;;9.00;7.50;;;11.90;93.50;;;;;;5107851;28;20265;-83
2021/12/31 12:20:37;;;;;;;8.55;6.82;;;12.00;93.30;;;;;;5106964;28;20264;-85
2021/12/31 12:23:23;;;;;;;8.00;6.95;;;12.10;93.10;;;;;;5111035;28;20608;-83
2021/12/31 12:25:51;;;;;;;12.23;7.97;;;12.10;92.80;;;;;;5113108;28;20193;-83
2021/12/31 12:28:21;;;;;;;8.88;7.40;;;12.20;92.30;;;;;;5116201;28;20248;-82
2021/12/31 12:30:59;;;;;;;9.55;7.80;;;12.30;91.80;;;;;;5115507;28;20286;-84
2021/12/31 12:33:27;;;;;;;8.93;7.40;;;12.30;90.70;;;;;;5112429;28;20215;-84
2021/12/31 12:35:55;;;;;;;9.30;7.80;;;12.20;91.00;;;;;;5105976;28;20209;-83
2021/12/31 12:38:25;;;;;;;10.52;7.47;;;12.20;91.70;;;;;;5105696;28;20212;-83
2021/12/31 12:40:55;;;;;;;9.95;7.80;;;12.10;92.00;;;;;;5115809;28;20710;-83
2021/12/31 12:43:24;;;;;;;8.52;7.72;;;12.20;92.20;;;;;;5106344;28;20221;-82
2021/12/31 12:45:53;;;;;;;7.63;6.90;;;12.20;92.50;;;;;;5110818;28;20213;-82
2021/12/31 12:48:31;;;;;;;8.32;7.53;;;12.20;92.20;;;;;;5117222;28;20205;-82
2021/12/31 12:50:58;;;;;;;8.25;7.45;;;12.30;92.40;;;;;;5114272;28;20284;-84
2021/12/31 12:53:27;;;;;;;7.50;6.70;;;12.40;92.30;;;;;;5119270;28;20189;-82
2021/12/31 12:56:07;;;;;;;8.25;7.20;;;12.20;92.30;;;;;;5106105;28;20207;-82
2021/12/31 12:58:36;;;;;;;7.68;6.88;;;12.30;93.20;;;;;;5104896;28;20189;-82
2021/12/31 13:01:06;;;;;;;7.47;6.78;;;12.50;93.00;;;;;;5102558;28;20244;-81